HTIR/IRI METAR and TAF weather

Enter ICAO airport designator
Station Type Date Time Source
HTIR METAR 2021/03/01 09:00 UTC NOAA

HTIR 010900Z 01005KT 9999 BKN028 FEW029CB BKN080 26/18 Q1020


Station Type Date Time Source
HTIR Decoded METAR 2021/03/01 09:00 UTC NOAA

Iringa, Tanzania (HTIR) 07-40S 035-45E 1428M
Mar 01, 2021 - 04:00 AM EST / 2021.03.01 0900 UTC
Wind: from the N (010 degrees) at 6 MPH (5 KT):0
Visibility: greater than 7 mile(s):0
Sky conditions: mostly cloudy
Weather: Cumulonimbus clouds observed
Temperature: 78 F (26 C)
Dew Point: 64 F (18 C)
Relative Humidity: 61%
Pressure (altimeter): 30.12 in. Hg (1020 hPa)
ob: HTIR 010900Z 01005KT 9999 BKN028 FEW029CB BKN080 26/18 Q1020
cycle: 9

Station Type Date Time Source
HTIR TAF UTC NOAA

Error!

Example: see airport list